Time;durP1;ratioP1;P1;durP2;ratioP2;P2;SDS_P1;SDS_P2;PMS_P1;PMS_P2;Temp;Humidity;BMP_temperature;BMP_pressure;BME280_temperature;BME280_humidity;BME280_pressure;Samples;Min_cycle;Max_cycle;Signal;HPM_P1;HPM_P2
2022/12/02 00:02:30;;;;;;;73.05;42.30;;;;;;;4.30;100.00;102418.59;5100722;28;20044;-79
2022/12/02 00:05:10;;;;;;;75.38;42.92;;;;;;;4.29;100.00;102422.00;5106145;28;20024;-78
2022/12/02 00:07:36;;;;;;;79.30;44.45;;;;;;;4.24;100.00;102419.97;5105463;28;20036;-69
2022/12/02 00:10:07;;;;;;;82.93;44.45;;;;;;;4.16;100.00;102412.56;5104999;28;20039;-69
2022/12/02 00:12:32;;;;;;;81.43;44.05;;;;;;;4.13;100.00;102415.03;5105077;28;20056;-69
2022/12/02 00:15:34;;;;;;;76.80;44.38;;;;;;;4.07;100.00;102409.47;5104269;28;20063;-70
2022/12/02 00:18:00;;;;;;;75.35;43.53;;;;;;;4.03;100.00;102409.22;5102556;28;20019;-69
2022/12/02 00:20:25;;;;;;;72.07;43.20;;;;;;;4.01;100.00;102411.75;5105728;28;20027;-70
2022/12/02 00:22:50;;;;;;;69.90;42.42;;;;;;;3.97;100.00;102410.66;5103053;28;20390;-70
2022/12/02 00:25:15;;;;;;;77.63;43.80;;;;;;;3.97;100.00;102408.03;5106505;28;20043;-71
2022/12/02 00:27:41;;;;;;;72.95;42.80;;;;;;;3.96;100.00;102405.34;5103371;28;20374;-70
2022/12/02 00:30:07;;;;;;;74.35;42.60;;;;;;;3.93;100.00;102410.41;5105111;28;20467;-69
2022/12/02 00:32:32;;;;;;;74.88;43.15;;;;;;;3.92;100.00;102401.66;5104670;28;20036;-69
2022/12/02 00:34:57;;;;;;;75.75;43.58;;;;;;;3.89;100.00;102397.94;5103754;28;20012;-69
2022/12/02 00:37:23;;;;;;;69.65;42.70;;;;;;;3.90;100.00;102397.16;5105645;28;20470;-70
2022/12/02 00:39:48;;;;;;;69.57;41.92;;;;;;;3.88;100.00;102383.97;5102805;28;20436;-69
2022/12/02 00:42:13;;;;;;;71.93;42.67;;;;;;;3.81;100.00;102385.34;5105792;28;20367;-69
2022/12/02 00:47:23;;;;;;;69.80;41.42;;;;;;;3.76;100.00;102384.19;5100235;28;20088;-69
2022/12/02 00:49:48;;;;;;;66.78;41.97;;;;;;;3.75;100.00;102387.63;5104489;28;20106;-69
2022/12/02 00:52:13;;;;;;;72.72;41.45;;;;;;;3.74;100.00;102388.44;5102517;28;20478;-69
2022/12/02 00:54:39;;;;;;;76.82;42.75;;;;;;;3.72;100.00;102379.59;5105120;28;20038;-68
2022/12/02 00:57:05;;;;;;;70.03;41.28;;;;;;;3.70;100.00;102382.94;5103823;27;20028;-69
2022/12/02 00:59:30;;;;;;;70.30;41.85;;;;;;;3.68;100.00;102377.63;5103430;28;20478;-68
2022/12/02 01:01:56;;;;;;;64.95;40.17;;;;;;;3.66;100.00;102377.53;5103865;28;20028;-69
2022/12/02 01:04:21;;;;;;;66.35;40.17;;;;;;;3.61;100.00;102380.69;5102263;28;20039;-69
2022/12/02 01:06:46;;;;;;;63.70;39.25;;;;;;;3.61;100.00;102376.38;5104300;28;20027;-70
2022/12/02 01:09:12;;;;;;;63.25;39.00;;;;;;;3.59;100.00;102380.59;5102672;28;20028;-68
2022/12/02 01:11:37;;;;;;;63.10;39.22;;;;;;;3.58;100.00;102372.66;5104287;28;20036;-69
2022/12/02 01:14:02;;;;;;;62.53;39.30;;;;;;;3.59;100.00;102380.59;5103710;28;20024;-69
2022/12/02 01:16:28;;;;;;;62.85;40.03;;;;;;;3.57;100.00;102381.31;5103171;28;20035;-78
2022/12/02 01:18:53;;;;;;;64.68;39.83;;;;;;;3.57;100.00;102376.09;5104886;28;20638;-79
2022/12/02 01:21:20;;;;;;;63.67;39.67;;;;;;;3.56;100.00;102379.53;5102070;28;20401;-79
2022/12/02 01:23:46;;;;;;;63.35;38.75;;;;;;;3.58;100.00;102380.53;5097729;28;20063;-79
2022/12/02 01:26:11;;;;;;;65.30;39.67;;;;;;;3.58;100.00;102378.81;5104516;28;20079;-79
2022/12/02 01:28:37;;;;;;;66.80;39.88;;;;;;;3.58;100.00;102378.81;5103579;28;20027;-79
2022/12/02 01:31:02;;;;;;;63.95;39.13;;;;;;;3.57;100.00;102376.09;5103370;28;20031;-80
2022/12/02 01:33:28;;;;;;;65.68;39.60;;;;;;;3.60;100.00;102369.34;5103150;28;20055;-79
2022/12/02 01:35:53;;;;;;;64.68;39.17;;;;;;;3.59;100.00;102370.16;5102032;28;20039;-80
2022/12/02 01:38:18;;;;;;;63.00;39.92;;;;;;;3.60;100.00;102371.06;5105014;28;20028;-80
2022/12/02 01:40:44;;;;;;;66.40;38.83;;;;;;;3.58;100.00;102377.91;5101742;28;20032;-80
2022/12/02 01:43:10;;;;;;;62.95;38.45;;;;;;;3.56;100.00;102376.94;5104328;28;20024;-79
2022/12/02 01:45:36;;;;;;;63.83;38.17;;;;;;;3.55;100.00;102382.97;5102723;28;20042;-80
2022/12/02 01:48:01;;;;;;;65.25;39.08;;;;;;;3.56;100.00;102377.81;5102912;28;20028;-79
2022/12/02 01:50:28;;;;;;;63.03;38.22;;;;;;;3.57;100.00;102378.72;5104152;28;20046;-79
2022/12/02 01:52:54;;;;;;;61.05;36.63;;;;;;;3.56;100.00;102385.66;5101733;28;20035;-79
2022/12/02 01:55:21;;;;;;;61.97;36.78;;;;;;;3.55;100.00;102372.50;5105146;28;20378;-78
2022/12/02 01:57:47;;;;;;;60.47;37.50;;;;;;;3.54;100.00;102371.59;5097478;28;20020;-78
2022/12/02 02:00:13;;;;;;;59.38;37.08;;;;;;;3.53;100.00;102371.53;5103551;28;20114;-78
2022/12/02 02:02:39;;;;;;;60.53;37.08;;;;;;;3.56;100.00;102371.69;5102228;28;20496;-78
2022/12/02 02:05:10;;;;;;;59.22;36.55;;;;;;;3.55;100.00;102367.28;5103422;28;20060;-78
2022/12/02 02:07:37;;;;;;;62.95;38.60;;;;;;;3.50;100.00;102369.63;5102585;28;20030;-78
2022/12/02 02:10:02;;;;;;;63.17;36.70;;;;;;;3.49;100.00;102376.59;5102753;28;20032;-78
2022/12/02 02:12:29;;;;;;;61.47;36.97;;;;;;;3.48;100.00;102372.16;5103866;28;20034;-78
2022/12/02 02:14:54;;;;;;;63.50;37.42;;;;;;;3.46;100.00;102367.66;5101548;28;20512;-78
2022/12/02 02:17:19;;;;;;;59.38;35.97;;;;;;;3.44;100.00;102370.16;5104660;28;20036;-78
2022/12/02 02:19:45;;;;;;;62.95;37.83;;;;;;;3.43;100.00;102368.38;5101270;28;20067;-78
2022/12/02 02:22:16;;;;;;;64.53;38.28;;;;;;;3.40;100.00;102368.19;5102504;28;20379;-78
2022/12/02 02:24:41;;;;;;;63.72;37.60;;;;;;;3.38;100.00;102371.53;5101396;28;20079;-78
2022/12/02 02:27:07;;;;;;;62.55;37.03;;;;;;;3.37;100.00;102362.78;5103529;28;20079;-78
2022/12/02 02:29:32;;;;;;;62.35;37.40;;;;;;;3.38;100.00;102364.59;5103047;28;20454;-70
2022/12/02 02:31:58;;;;;;;61.80;36.30;;;;;;;3.36;100.00;102360.97;5100587;28;20020;-68
2022/12/02 02:34:23;;;;;;;60.10;37.28;;;;;;;3.37;100.00;102368.00;5104304;28;20470;-68
2022/12/02 02:36:49;;;;;;;62.60;38.53;;;;;;;3.34;100.00;102357.38;5100878;28;20062;-69
2022/12/02 02:39:14;;;;;;;59.50;36.67;;;;;;;3.35;100.00;102353.97;5104027;28;20173;-69
2022/12/02 02:41:40;;;;;;;62.83;37.38;;;;;;;3.34;100.00;102356.50;5101960;28;20060;-68
2022/12/02 02:44:05;;;;;;;63.67;38.45;;;;;;;3.28;100.00;102357.03;5102749;28;20534;-69
2022/12/02 02:46:31;;;;;;;62.83;38.40;;;;;;;3.28;100.00;102349.19;5103425;28;20040;-68
2022/12/02 02:48:57;;;;;;;62.97;37.88;;;;;;;3.26;100.00;102354.34;5101472;28;20066;-68
2022/12/02 02:51:22;;;;;;;59.85;34.88;;;;;;;3.18;100.00;102355.59;5102735;28;20087;-69
2022/12/02 02:53:48;;;;;;;58.70;35.10;;;;;;;3.14;100.00;102348.38;5101194;28;20040;-68
2022/12/02 02:56:14;;;;;;;58.75;35.50;;;;;;;3.09;100.00;102349.84;5102913;28;20024;-68
2022/12/02 02:58:39;;;;;;;58.22;35.58;;;;;;;3.04;100.00;102351.25;5101502;28;20580;-68
2022/12/02 03:01:16;;;;;;;55.83;34.00;;;;;;;3.01;100.00;102338.91;5102757;28;20028;-68
2022/12/02 03:03:49;;;;;;;57.20;35.28;;;;;;;3.00;100.00;102350.19;5101532;28;20039;-67
2022/12/02 03:06:16;;;;;;;55.45;33.95;;;;;;;3.00;100.00;102339.75;5103909;28;20023;-68
2022/12/02 03:08:45;;;;;;;54.90;34.35;;;;;;;2.97;100.00;102335.22;5101556;28;20117;-68
2022/12/02 03:11:11;;;;;;;55.45;34.08;;;;;;;2.96;100.00;102327.31;5104569;28;20024;-68
2022/12/02 03:13:38;;;;;;;56.60;35.13;;;;;;;2.94;100.00;102328.91;5105748;27;20398;-68
2022/12/02 03:16:08;;;;;;;56.53;34.05;;;;;;;2.94;100.00;102339.34;5105975;28;20059;-76
2022/12/02 03:18:34;;;;;;;55.30;33.38;;;;;;;2.90;100.00;102326.94;5106199;28;20020;-78
2022/12/02 03:21:00;;;;;;;53.85;33.88;;;;;;;2.84;100.00;102326.56;5105217;28;20502;-76
2022/12/02 03:23:27;;;;;;;53.00;33.00;;;;;;;2.81;100.00;102327.31;5105772;28;20410;-74
2022/12/02 03:25:53;;;;;;;55.53;34.65;;;;;;;2.72;100.00;102319.81;5104063;28;20514;-73
2022/12/02 03:28:18;;;;;;;54.08;32.47;;;;;;;2.70;100.00;102331.84;5107512;28;20036;-74
2022/12/02 03:30:44;;;;;;;54.50;33.55;;;;;;;2.68;100.00;102332.56;5104359;28;20035;-78
2022/12/02 03:33:09;;;;;;;54.55;33.67;;;;;;;2.69;100.00;102331.78;5106530;28;20107;-74
2022/12/02 03:35:35;;;;;;;54.05;32.10;;;;;;;2.66;100.00;102331.59;5105804;28;20036;-71
2022/12/02 03:38:00;;;;;;;54.83;33.47;;;;;;;2.65;100.00;102338.53;5104921;28;20047;-75
2022/12/02 03:40:26;;;;;;;53.00;31.73;;;;;;;2.67;100.00;102334.28;5106907;28;20111;-77
2022/12/02 03:42:52;;;;;;;54.47;32.70;;;;;;;2.63;100.00;102334.03;5103717;28;20047;-76
2022/12/02 03:45:18;;;;;;;53.58;31.88;;;;;;;2.62;100.00;102322.66;5099918;28;20062;-73
2022/12/02 03:47:44;;;;;;;53.03;32.15;;;;;;;2.58;100.00;102312.84;5105907;28;20386;-78
2022/12/02 03:50:11;;;;;;;55.42;32.85;;;;;;;2.54;100.00;102316.09;5104554;28;20027;-75
2022/12/02 03:52:36;;;;;;;56.40;32.92;;;;;;;2.55;100.00;102315.25;5105500;28;20544;-75
2022/12/02 03:55:03;;;;;;;55.03;32.50;;;;;;;2.55;100.00;102321.41;5104658;28;20032;-70
2022/12/02 03:57:32;;;;;;;55.83;33.17;;;;;;;2.50;100.00;102316.72;5104408;28;20028;-68
2022/12/02 03:59:57;;;;;;;55.20;33.08;;;;;;;2.49;100.00;102299.22;5106032;28;20118;-70
2022/12/02 04:02:22;;;;;;;57.40;33.58;;;;;;;2.49;100.00;102300.16;5102251;28;20122;-69
2022/12/02 04:04:48;;;;;;;56.15;33.97;;;;;;;2.53;100.00;102303.84;5106881;28;20039;-70
2022/12/02 04:07:13;;;;;;;56.15;33.47;;;;;;;2.51;100.00;102301.13;5104053;28;20028;-70
2022/12/02 04:09:39;;;;;;;54.33;32.83;;;;;;;2.55;100.00;102304.81;5105512;28;20055;-71
2022/12/02 04:12:04;;;;;;;56.33;33.53;;;;;;;2.53;100.00;102301.22;5103723;28;20038;-75
2022/12/02 04:14:29;;;;;;;56.17;32.80;;;;;;;2.53;100.00;102303.84;5104245;28;20061;-72
2022/12/02 04:16:55;;;;;;;55.50;33.08;;;;;;;2.53;100.00;102299.50;5106137;28;20478;-74
2022/12/02 04:19:20;;;;;;;55.83;34.03;;;;;;;2.51;100.00;102297.63;5103075;28;20398;-72
2022/12/02 04:21:46;;;;;;;54.63;32.42;;;;;;;2.54;100.00;102305.66;5106407;28;20024;-69
2022/12/02 04:24:11;;;;;;;56.28;33.85;;;;;;;2.56;100.00;102299.72;5103184;28;20080;-78
2022/12/02 04:26:36;;;;;;;53.97;32.63;;;;;;;2.56;100.00;102298.78;5104574;28;20040;-78
2022/12/02 04:29:02;;;;;;;55.70;33.17;;;;;;;2.54;100.00;102284.75;5105172;28;20118;-78
2022/12/02 04:31:27;;;;;;;53.50;30.83;;;;;;;2.53;100.00;102288.16;5103573;28;20082;-73
2022/12/02 04:33:52;;;;;;;54.75;31.83;;;;;;;2.49;100.00;102291.41;5106191;28;20024;-71
2022/12/02 04:36:18;;;;;;;53.72;32.03;;;;;;;2.47;100.00;102287.81;5102912;28;20035;-72
2022/12/02 04:38:43;;;;;;;53.40;30.85;;;;;;;2.45;100.00;102295.56;5105528;28;20032;-71
2022/12/02 04:41:08;;;;;;;54.05;31.90;;;;;;;2.44;100.00;102294.63;5103918;28;20023;-74
2022/12/02 04:43:34;;;;;;;55.95;32.13;;;;;;;2.44;100.00;102297.22;5102854;28;20040;-70
2022/12/02 04:45:59;;;;;;;53.47;31.35;;;;;;;2.44;100.00;102302.44;5105290;28;20126;-68
2022/12/02 04:48:25;;;;;;;53.55;29.60;;;;;;;2.51;100.00;102295.03;5102905;28;20515;-70
2022/12/02 04:50:50;;;;;;;52.22;29.95;;;;;;;2.44;100.00;102289.41;5105997;28;20024;-72
2022/12/02 04:53:15;;;;;;;52.28;30.13;;;;;;;2.37;100.00;102287.22;5102613;28;20028;-71
2022/12/02 04:55:42;;;;;;;50.45;28.98;;;;;;;2.37;100.00;102282.00;5105108;28;20071;-70
2022/12/02 04:58:08;;;;;;;51.60;28.63;;;;;;;2.38;100.00;102276.00;5103858;28;20027;-70
2022/12/02 05:00:33;;;;;;;49.42;26.58;;;;;;;2.37;100.00;102278.50;5103544;28;20054;-68
2022/12/02 05:02:58;;;;;;;45.90;25.95;;;;;;;2.37;100.00;102274.19;5105129;28;20023;-69
2022/12/02 05:05:24;;;;;;;44.63;25.08;;;;;;;2.27;100.00;102279.66;5102173;28;20039;-71
2022/12/02 05:07:49;;;;;;;44.13;25.40;;;;;;;2.32;100.00;102274.72;5105743;28;20110;-69
2022/12/02 05:10:15;;;;;;;43.67;25.42;;;;;;;2.31;100.00;102270.31;5102686;28;20048;-68
2022/12/02 05:12:41;;;;;;;44.15;25.50;;;;;;;2.31;100.00;102271.19;5104458;28;20035;-68
2022/12/02 05:15:07;;;;;;;45.25;26.08;;;;;;;2.33;100.00;102267.00;5103595;28;20023;-69
2022/12/02 05:17:32;;;;;;;46.85;26.92;;;;;;;2.31;100.00;102265.97;5102131;28;20024;-68
2022/12/02 05:19:57;;;;;;;44.42;25.20;;;;;;;2.32;100.00;102257.34;5104663;28;20036;-69
2022/12/02 05:22:23;;;;;;;47.40;27.23;;;;;;;2.34;100.00;102263.56;5102062;28;20028;-69
2022/12/02 05:24:48;;;;;;;47.10;26.48;;;;;;;2.33;100.00;102259.16;5097317;28;20039;-69
2022/12/02 05:27:14;;;;;;;47.88;27.10;;;;;;;2.32;100.00;102254.75;5104635;28;20038;-69
2022/12/02 05:29:39;;;;;;;47.00;26.58;;;;;;;2.32;100.00;102262.56;5103114;28;20039;-69
2022/12/02 05:32:04;;;;;;;46.95;26.92;;;;;;;2.33;100.00;102261.78;5103308;28;20031;-68
2022/12/02 05:34:30;;;;;;;49.03;27.80;;;;;;;2.35;100.00;102272.31;5103405;28;20085;-69
2022/12/02 05:36:55;;;;;;;49.35;27.25;;;;;;;2.32;100.00;102269.53;5100724;28;20044;-69
2022/12/02 05:39:21;;;;;;;45.90;27.23;;;;;;;2.34;100.00;102266.16;5105026;28;20043;-78
2022/12/02 05:41:46;;;;;;;46.90;27.00;;;;;;;2.31;100.00;102255.53;5102091;28;20039;-79
2022/12/02 05:44:21;;;;;;;47.50;26.67;;;;;;;2.29;100.00;102267.63;5104277;28;20020;-79
2022/12/02 05:46:47;;;;;;;44.70;25.95;;;;;;;2.25;100.00;102258.69;5101638;28;20109;-79
2022/12/02 05:49:23;;;;;;;44.00;25.38;;;;;;;2.25;100.00;102252.56;5104152;28;20036;-78
2022/12/02 05:51:55;;;;;;;45.05;25.00;;;;;;;2.29;100.00;102251.03;5101414;28;20034;-79
2022/12/02 05:54:21;;;;;;;44.30;24.38;;;;;;;2.24;100.00;102253.38;5097639;28;20032;-79
2022/12/02 05:56:47;;;;;;;42.58;24.40;;;;;;;2.25;100.00;102258.69;5103496;28;20080;-78
2022/12/02 05:59:16;;;;;;;41.20;23.42;;;;;;;2.22;100.00;102253.28;5102108;28;20051;-78
2022/12/02 06:01:41;;;;;;;41.88;23.50;;;;;;;2.22;100.00;102250.66;5103897;28;20063;-79
2022/12/02 06:04:13;;;;;;;41.05;22.73;;;;;;;2.24;100.00;102256.91;5103156;28;20047;-79
2022/12/02 06:06:39;;;;;;;43.30;23.05;;;;;;;2.20;100.00;102254.91;5103343;28;20077;-79
2022/12/02 06:09:12;;;;;;;42.35;23.35;;;;;;;2.20;100.00;102253.97;5102133;28;20111;-78
2022/12/02 06:11:37;;;;;;;42.17;23.05;;;;;;;2.24;100.00;102256.91;5103212;28;20073;-78
2022/12/02 06:14:15;;;;;;;43.38;23.50;;;;;;;2.27;100.00;102256.16;5102156;28;20023;-78
2022/12/02 06:16:45;;;;;;;42.05;22.50;;;;;;;2.21;100.00;102253.19;5103340;28;20471;-74
2022/12/02 06:19:42;;;;;;;44.25;24.08;;;;;;;2.25;100.00;102255.19;5102673;28;20106;-78
2022/12/02 06:22:18;;;;;;;42.55;23.77;;;;;;;2.24;100.00;102253.38;5100492;28;20502;-78
2022/12/02 06:24:43;;;;;;;42.83;23.02;;;;;;;2.22;100.00;102266.31;5100732;28;20027;-77
2022/12/02 06:27:12;;;;;;;42.47;23.45;;;;;;;2.19;100.00;102253.09;5103016;28;20055;-78
2022/12/02 06:29:46;;;;;;;43.85;23.58;;;;;;;2.19;100.00;102255.72;5102629;28;20030;-77
2022/12/02 06:32:17;;;;;;;42.42;23.20;;;;;;;2.17;100.00;102251.19;5103414;28;20032;-78
2022/12/02 06:34:43;;;;;;;42.72;23.60;;;;;;;2.16;100.00;102249.41;5100984;28;20024;-76
2022/12/02 06:37:17;;;;;;;42.92;23.55;;;;;;;2.16;100.00;102254.63;5103200;28;20530;-74
2022/12/02 06:39:45;;;;;;;42.10;22.98;;;;;;;2.08;100.00;102256.75;5101680;28;20031;-69
2022/12/02 06:42:37;;;;;;;42.08;22.60;;;;;;;2.21;100.00;102255.78;5101868;28;20074;-69
2022/12/02 06:45:19;;;;;;;41.83;23.10;;;;;;;2.16;100.00;102252.03;5097910;28;20024;-69
2022/12/02 06:48:20;;;;;;;40.97;22.05;;;;;;;2.11;100.00;102245.59;5098826;28;20063;-66
2022/12/02 06:50:47;;;;;;;41.38;22.95;;;;;;;2.06;100.00;102254.06;5060149;28;20074;-70
2022/12/02 06:53:28;;;;;;;42.88;23.17;;;;;;;2.08;100.00;102251.53;5099635;28;20031;-64
2022/12/02 06:55:58;;;;;;;44.53;22.98;;;;;;;2.05;100.00;102252.28;5100227;28;20032;-67
2022/12/02 06:58:34;;;;;;;41.85;23.60;;;;;;;2.09;100.00;102258.56;5096538;28;20026;-64
2022/12/02 07:01:40;;;;;;;41.28;22.20;;;;;;;2.15;100.00;102250.22;5094299;28;20051;-64
2022/12/02 07:04:08;;;;;;;42.47;23.20;;;;;;;2.11;100.00;102250.81;5016551;28;20045;-65
2022/12/02 07:06:48;;;;;;;42.45;22.63;;;;;;;2.14;100.00;102257.16;5085886;28;20036;-66
2022/12/02 07:09:31;;;;;;;42.67;23.35;;;;;;;2.11;100.00;102256.03;5101841;28;20112;-65
2022/12/02 07:11:58;;;;;;;42.03;22.98;;;;;;;2.04;100.00;102259.97;5097840;28;20089;-68
2022/12/02 07:14:42;;;;;;;42.75;23.70;;;;;;;2.02;100.00;102270.31;5100897;28;20478;-69
2022/12/02 07:17:22;;;;;;;42.35;22.55;;;;;;;2.06;100.00;102256.66;5098145;28;20032;-69
2022/12/02 07:19:54;;;;;;;43.47;23.02;;;;;;;2.05;100.00;102256.56;5099020;28;20032;-74
2022/12/02 07:22:22;;;;;;;42.40;23.33;;;;;;;2.04;100.00;102267.78;5101477;28;20032;-76
2022/12/02 07:24:57;;;;;;;43.47;22.40;;;;;;;2.05;100.00;102267.91;5101271;28;20024;-73
2022/12/02 07:27:30;;;;;;;41.67;22.92;;;;;;;2.05;100.00;102274.81;5101382;28;20062;-74
2022/12/02 07:29:57;;;;;;;42.45;21.88;;;;;;;2.06;100.00;102268.81;5101503;28;20132;-77
2022/12/02 07:32:23;;;;;;;40.47;21.17;;;;;;;2.17;100.00;102264.25;5097393;28;20455;-76
2022/12/02 07:34:49;;;;;;;40.60;21.08;;;;;;;2.06;100.00;102258.38;5101531;28;20032;-77
2022/12/02 07:37:14;;;;;;;40.80;20.98;;;;;;;2.04;100.00;102268.72;5101832;28;20081;-80
2022/12/02 07:39:40;;;;;;;40.80;21.58;;;;;;;2.04;100.00;102260.91;5102563;28;20115;-78
2022/12/02 07:42:06;;;;;;;40.50;21.50;;;;;;;2.06;100.00;102254.06;5099259;28;20111;-78
2022/12/02 07:44:31;;;;;;;39.45;20.67;;;;;;;2.08;100.00;102260.28;5101829;28;20427;-78
2022/12/02 07:46:56;;;;;;;38.25;20.00;;;;;;;2.11;100.00;102258.66;5099081;28;20024;-76
2022/12/02 07:49:22;;;;;;;38.03;19.83;;;;;;;2.06;100.00;102253.16;5098642;28;20073;-76
2022/12/02 07:51:47;;;;;;;37.10;19.70;;;;;;;2.07;100.00;102261.06;5080674;28;20030;-76
2022/12/02 07:54:13;;;;;;;38.72;19.95;;;;;;;2.08;100.00;102252.44;5100861;28;20110;-73
2022/12/02 07:56:38;;;;;;;37.83;19.73;;;;;;;2.17;100.00;102261.63;5097985;28;20063;-78
2022/12/02 07:59:03;;;;;;;36.60;19.17;;;;;;;2.14;100.00;102251.00;5095005;28;20032;-77
2022/12/02 08:01:29;;;;;;;36.72;19.35;;;;;;;2.12;100.00;102263.06;5099981;28;20028;-77
2022/12/02 08:03:54;;;;;;;38.53;20.08;;;;;;;2.14;100.00;102261.44;5097898;28;20032;-77
2022/12/02 08:06:20;;;;;;;38.85;20.25;;;;;;;2.12;100.00;102263.97;5103481;27;20032;-77
2022/12/02 08:08:45;;;;;;;40.17;20.92;;;;;;;2.09;100.00;102264.66;5099946;28;20031;-74
2022/12/02 08:11:10;;;;;;;39.65;20.73;;;;;;;2.08;100.00;102268.09;5102537;28;20056;-76
2022/12/02 08:13:35;;;;;;;39.70;21.75;;;;;;;2.11;100.00;102271.69;5099913;28;20090;-75
2022/12/02 08:16:01;;;;;;;38.63;20.90;;;;;;;2.12;100.00;102263.06;5092610;28;20032;-77
2022/12/02 08:18:26;;;;;;;39.72;21.38;;;;;;;2.13;100.00;102260.56;5093161;28;20111;-73
2022/12/02 08:20:52;;;;;;;42.88;21.67;;;;;;;2.14;100.00;102256.22;5098357;28;20024;-76
2022/12/02 08:23:17;;;;;;;41.63;22.40;;;;;;;2.15;100.00;102258.94;5100712;28;20028;-74
2022/12/02 08:25:42;;;;;;;40.63;21.23;;;;;;;2.18;100.00;102256.50;5075883;28;20075;-73
2022/12/02 08:28:08;;;;;;;41.00;22.45;;;;;;;2.17;100.00;102254.72;5100017;28;20033;-75
2022/12/02 08:30:33;;;;;;;40.25;22.33;;;;;;;2.24;100.00;102259.50;5096101;28;20034;-74
2022/12/02 08:32:58;;;;;;;40.85;21.50;;;;;;;2.22;100.00;102249.78;5100273;28;20466;-76
2022/12/02 08:35:24;;;;;;;39.85;21.20;;;;;;;2.25;100.00;102263.00;5098183;28;20032;-80
2022/12/02 08:37:49;;;;;;;41.80;22.67;;;;;;;2.24;100.00;102258.59;5096995;28;20032;-79
2022/12/02 08:40:15;;;;;;;41.00;23.02;;;;;;;2.24;100.00;102254.28;5101097;28;20466;-82
2022/12/02 08:42:41;;;;;;;42.50;22.98;;;;;;;2.22;100.00;102252.38;5104269;28;20027;-80
2022/12/02 08:45:07;;;;;;;43.30;23.58;;;;;;;2.19;100.00;102252.22;5100106;28;20081;-74
2022/12/02 08:47:32;;;;;;;41.00;23.10;;;;;;;2.18;100.00;102258.22;5099780;28;20092;-77
2022/12/02 08:49:57;;;;;;;44.33;24.77;;;;;;;2.19;100.00;102260.03;5099652;28;20019;-72
2022/12/02 08:52:23;;;;;;;42.40;23.20;;;;;;;2.26;100.00;102259.59;5096230;28;20032;-81
2022/12/02 08:54:48;;;;;;;43.15;23.98;;;;;;;2.21;100.00;102261.00;5101394;28;20032;-73
2022/12/02 08:57:14;;;;;;;42.03;24.05;;;;;;;2.20;100.00;102259.19;5102778;28;20032;-79
2022/12/02 08:59:39;;;;;;;42.00;23.17;;;;;;;2.19;100.00;102260.03;5099937;28;20055;-77
2022/12/02 09:02:05;;;;;;;42.38;23.10;;;;;;;2.19;100.00;102255.72;5099155;28;20028;-80
2022/12/02 09:04:30;;;;;;;42.60;22.45;;;;;;;2.22;100.00;102257.59;5100629;28;20051;-78
2022/12/02 09:06:56;;;;;;;39.85;21.85;;;;;;;2.21;100.00;102251.50;5102440;28;20437;-80
2022/12/02 09:09:21;;;;;;;39.78;21.30;;;;;;;2.24;100.00;102258.59;5097729;28;20064;-81
2022/12/02 09:11:46;;;;;;;39.30;21.40;;;;;;;2.26;100.00;102259.59;5105172;28;20419;-81
2022/12/02 09:14:12;;;;;;;39.40;21.35;;;;;;;2.20;100.00;102261.81;5103504;28;20110;-82
2022/12/02 09:16:37;;;;;;;37.90;19.83;;;;;;;2.22;100.00;102252.38;5103479;28;20027;-81
2022/12/02 09:19:02;;;;;;;37.97;19.90;;;;;;;2.24;100.00;102262.13;5104640;28;20347;-68
2022/12/02 09:21:28;;;;;;;37.50;20.23;;;;;;;2.25;100.00;102253.47;5102630;28;20066;-68
2022/12/02 09:23:53;;;;;;;37.45;20.08;;;;;;;2.28;100.00;102260.59;5105571;28;20052;-67
2022/12/02 09:26:19;;;;;;;36.90;19.73;;;;;;;2.24;100.00;102259.50;5097130;28;20501;-81
2022/12/02 09:28:45;;;;;;;33.80;17.02;;;;;;;2.21;100.00;102255.78;5103278;28;20054;-80
2022/12/02 09:31:10;;;;;;;34.85;17.65;;;;;;;2.25;100.00;102255.19;5103496;28;20111;-81
2022/12/02 09:33:36;;;;;;;33.60;17.58;;;;;;;2.15;100.00;102253.72;5102903;28;20028;-81
2022/12/02 09:36:01;;;;;;;34.15;17.15;;;;;;;2.12;100.00;102252.63;5104606;28;20028;-81
2022/12/02 09:38:30;;;;;;;34.78;18.30;;;;;;;2.11;100.00;102249.09;5101428;28;20032;-78
2022/12/02 09:40:56;;;;;;;35.42;18.52;;;;;;;2.10;100.00;102247.31;5105312;28;20036;-79
2022/12/02 09:43:22;;;;;;;34.53;18.05;;;;;;;2.12;100.00;102244.81;5097634;28;20032;-80
2022/12/02 09:45:47;;;;;;;34.60;18.13;;;;;;;2.12;100.00;102236.97;5104462;28;20089;-80
2022/12/02 09:48:12;;;;;;;36.88;18.98;;;;;;;2.15;100.00;102238.06;5102864;28;20028;-81
2022/12/02 09:50:39;;;;;;;37.25;18.55;;;;;;;2.16;100.00;102231.16;5103036;28;20055;-71
2022/12/02 09:53:06;;;;;;;36.20;18.35;;;;;;;2.20;100.00;102238.31;5103874;27;20443;-74
2022/12/02 09:55:33;;;;;;;37.22;20.10;;;;;;;2.21;100.00;102234.91;5102255;28;20472;-70
2022/12/02 09:58:14;;;;;;;37.33;18.98;;;;;;;2.21;100.00;102237.53;5104845;28;20072;-71
2022/12/02 10:00:40;;;;;;;36.90;19.77;;;;;;;2.28;100.00;102242.31;5103031;28;20028;-70
2022/12/02 10:03:06;;;;;;;37.28;19.10;;;;;;;2.32;100.00;102238.19;5102229;28;20023;-70
2022/12/02 10:05:34;;;;;;;37.33;18.45;;;;;;;2.28;100.00;102239.69;5102097;28;20046;-72
2022/12/02 10:07:59;;;;;;;38.42;19.50;;;;;;;2.33;100.00;102232.16;5104361;28;20020;-73
2022/12/02 10:10:32;;;;;;;35.45;18.35;;;;;;;2.30;100.00;102237.19;5101194;28;20494;-70
2022/12/02 10:12:57;;;;;;;38.13;19.00;;;;;;;2.31;100.00;102239.88;5098112;28;20078;-73
2022/12/02 10:15:30;;;;;;;37.20;19.05;;;;;;;2.31;100.00;102236.38;5104687;28;20051;-69
2022/12/02 10:17:56;;;;;;;37.25;19.08;;;;;;;2.25;100.00;102235.19;5097449;28;20034;-70
2022/12/02 10:20:25;;;;;;;38.25;19.58;;;;;;;2.28;100.00;102234.47;5096997;28;20123;-78
2022/12/02 10:23:20;;;;;;;39.00;20.05;;;;;;;2.28;100.00;102234.47;5108506;28;20023;-77
2022/12/02 10:25:54;;;;;;;39.15;19.35;;;;;;;2.25;100.00;102239.53;5105779;28;20044;-78
2022/12/02 10:28:21;;;;;;;41.00;20.08;;;;;;;2.22;100.00;102235.00;5105751;28;20074;-76
2022/12/02 10:31:04;;;;;;;40.90;20.70;;;;;;;2.22;100.00;102228.91;5107950;28;20374;-77
2022/12/02 10:33:32;;;;;;;43.67;21.83;;;;;;;2.21;100.00;102227.09;5102337;28;20143;-75
2022/12/02 10:35:59;;;;;;;45.10;21.90;;;;;;;2.19;100.00;102228.72;5096166;28;20367;-67
2022/12/02 10:38:34;;;;;;;45.10;22.73;;;;;;;2.23;100.00;102220.28;5096067;28;20046;-73
2022/12/02 10:41:24;;;;;;;45.85;23.20;;;;;;;2.28;100.00;102218.81;5094580;28;20513;-78
2022/12/02 10:43:52;;;;;;;46.08;23.40;;;;;;;2.24;100.00;102211.63;5096401;28;20040;-78
2022/12/02 10:46:22;;;;;;;47.85;23.55;;;;;;;2.24;100.00;102209.00;5099302;28;20055;-78
2022/12/02 10:48:48;;;;;;;46.60;23.48;;;;;;;2.24;100.00;102214.22;5098965;28;20031;-78
2022/12/02 10:51:15;;;;;;;50.28;24.55;;;;;;;2.30;100.00;102206.78;5097968;28;20062;-77
2022/12/02 10:53:42;;;;;;;49.95;23.80;;;;;;;2.35;100.00;102205.34;5101939;28;20479;-76
2022/12/02 10:56:15;;;;;;;49.65;25.10;;;;;;;2.38;100.00;102213.34;5102694;28;20031;-78
2022/12/02 10:58:41;;;;;;;49.88;24.15;;;;;;;2.42;100.00;102207.50;5098505;28;20352;-71
2022/12/02 11:01:09;;;;;;;47.80;24.27;;;;;;;2.42;100.00;102202.28;5099712;28;20031;-73
2022/12/02 11:03:35;;;;;;;46.85;24.02;;;;;;;2.53;100.00;102205.50;5104203;28;20031;-76
2022/12/02 11:06:01;;;;;;;50.13;25.00;;;;;;;2.58;100.00;102193.63;5095412;28;20487;-66
2022/12/02 11:08:28;;;;;;;48.42;24.58;;;;;;;2.61;100.00;102199.03;5099765;28;20036;-67
2022/12/02 11:11:13;;;;;;;47.72;23.80;;;;;;;2.66;100.00;102196.69;5099000;28;20058;-67
2022/12/02 11:13:58;;;;;;;50.90;25.80;;;;;;;2.61;100.00;102198.16;5099846;28;20028;-67
2022/12/02 11:16:26;;;;;;;50.70;24.70;;;;;;;2.63;100.00;102196.50;5100241;28;20020;-68